createdAt,value
2016-09-28T00:00:48.838Z,0
2016-09-28T00:01:48.891Z,0
2016-09-28T00:02:48.958Z,0
2016-09-28T00:03:49.004Z,0
2016-09-28T00:04:49.075Z,0
2016-09-28T00:05:49.123Z,0
2016-09-28T00:06:49.157Z,0
2016-09-28T00:07:49.244Z,0
2016-09-28T00:08:49.298Z,0
2016-09-28T00:09:49.347Z,0
2016-09-28T00:10:49.417Z,0
2016-09-28T00:11:49.455Z,0
2016-09-28T00:12:49.486Z,0
2016-09-28T00:13:49.563Z,0
2016-09-28T00:14:49.635Z,0
2016-09-28T00:15:49.660Z,0
2016-09-28T00:16:50.084Z,0
2016-09-28T00:17:49.781Z,0
2016-09-28T00:18:49.835Z,0
2016-09-28T00:19:49.897Z,0
2016-09-28T00:20:49.937Z,0
2016-09-28T00:21:50.008Z,0
2016-09-28T00:22:50.062Z,0
2016-09-28T00:23:50.108Z,0
2016-09-28T00:24:50.182Z,0
2016-09-28T00:25:50.231Z,0
2016-09-28T00:26:50.278Z,0
2016-09-28T00:27:50.325Z,0
2016-09-28T00:28:50.391Z,0
2016-09-28T00:29:50.452Z,0
2016-09-28T00:30:50.483Z,0
2016-09-28T00:31:50.567Z,0
2016-09-28T00:32:50.623Z,0
2016-09-28T00:33:50.678Z,0
2016-09-28T00:34:50.726Z,0
2016-09-28T00:35:50.782Z,0
2016-09-28T00:36:50.836Z,0
2016-09-28T00:37:50.887Z,0
2016-09-28T00:38:50.931Z,0
2016-09-28T00:39:51.009Z,0
2016-09-28T00:40:51.054Z,0
2016-09-28T00:41:51.126Z,0
2016-09-28T00:42:51.164Z,0
2016-09-28T00:43:51.205Z,0
2016-09-28T00:44:51.281Z,0
2016-09-28T00:45:51.351Z,0
2016-09-28T00:46:51.398Z,0
2016-09-28T00:47:51.441Z,0
2016-09-28T00:48:51.507Z,0
2016-09-28T00:49:51.558Z,0
2016-09-28T00:50:51.614Z,0
2016-09-28T00:51:51.667Z,0
2016-09-28T00:52:51.700Z,0
2016-09-28T00:53:51.793Z,0
2016-09-28T00:54:51.840Z,0
2016-09-28T00:55:51.900Z,0
2016-09-28T00:56:51.951Z,0
2016-09-28T00:57:52.008Z,0
2016-09-28T00:58:52.045Z,0
2016-09-28T00:59:52.101Z,0
2016-09-28T01:00:52.172Z,0
2016-09-28T01:01:52.215Z,0
2016-09-28T01:02:52.286Z,0
2016-09-28T01:03:52.313Z,0
2016-09-28T01:04:52.400Z,0
2016-09-28T01:05:52.442Z,0
2016-09-28T01:06:52.481Z,0
2016-09-28T01:07:52.535Z,0
2016-09-28T01:08:52.604Z,0
2016-09-28T01:09:52.657Z,0
2016-09-28T01:10:52.708Z,0
2016-09-28T01:11:52.771Z,0
2016-09-28T01:12:52.827Z,0
2016-09-28T01:13:52.861Z,0
2016-09-28T01:14:52.939Z,0
2016-09-28T01:15:53.273Z,0
2016-09-28T01:16:53.039Z,0
2016-09-28T01:17:53.085Z,0
2016-09-28T01:18:53.139Z,0
2016-09-28T01:19:53.206Z,0
2016-09-28T01:20:53.264Z,0
2016-09-28T01:21:53.315Z,0
2016-09-28T01:22:53.373Z,0
2016-09-28T01:23:53.443Z,0
2016-09-28T01:24:53.476Z,0
2016-09-28T01:25:53.546Z,0
2016-09-28T01:26:53.613Z,0
2016-09-28T01:27:53.663Z,0
2016-09-28T01:28:53.697Z,0
2016-09-28T01:29:53.757Z,0
2016-09-28T01:30:53.821Z,0
2016-09-28T01:31:53.878Z,0
2016-09-28T01:32:53.928Z,0
2016-09-28T01:33:53.989Z,0
2016-09-28T01:34:54.043Z,0
2016-09-28T01:35:54.079Z,0
2016-09-28T01:36:54.152Z,0
2016-09-28T01:37:54.210Z,0
2016-09-28T01:38:54.272Z,0
2016-09-28T01:39:54.311Z,0
2016-09-28T01:40:54.380Z,0
2016-09-28T01:41:54.438Z,0
2016-09-28T01:42:54.479Z,0
2016-09-28T01:43:54.518Z,0
2016-09-28T01:44:54.596Z,0
2016-09-28T01:45:54.638Z,0
2016-09-28T01:46:54.701Z,0
2016-09-28T01:47:54.776Z,0
2016-09-28T01:48:54.796Z,0
2016-09-28T01:49:54.874Z,0
2016-09-28T01:50:54.933Z,0
2016-09-28T01:51:54.976Z,0
2016-09-28T01:52:55.052Z,0
2016-09-28T01:53:55.104Z,0
2016-09-28T01:54:55.509Z,0
2016-09-28T01:55:55.203Z,0
2016-09-28T01:56:55.256Z,0
2016-09-28T01:57:55.293Z,0
2016-09-28T01:58:55.354Z,0
2016-09-28T01:59:55.431Z,0
2016-09-28T02:00:55.479Z,0
2016-09-28T02:01:55.523Z,0
2016-09-28T02:02:55.588Z,0
2016-09-28T02:03:55.651Z,0
2016-09-28T02:04:55.676Z,0
2016-09-28T02:05:55.748Z,0
2016-09-28T02:06:55.829Z,0
2016-09-28T02:07:55.853Z,0
2016-09-28T02:08:55.922Z,0
2016-09-28T02:09:55.976Z,0
2016-09-28T02:10:56.040Z,0
2016-09-28T02:11:56.086Z,0
2016-09-28T02:12:56.148Z,0
2016-09-28T02:13:56.190Z,0
2016-09-28T02:14:56.242Z,0
2016-09-28T02:15:56.324Z,0
2016-09-28T02:16:56.361Z,0
2016-09-28T02:17:56.395Z,0
2016-09-28T02:18:56.462Z,0
2016-09-28T02:19:56.526Z,0
2016-09-28T02:20:56.594Z,0
2016-09-28T02:21:56.634Z,0
2016-09-28T02:22:56.678Z,0
2016-09-28T02:23:56.760Z,0
2016-09-28T02:24:56.786Z,0
2016-09-28T02:25:56.853Z,0
2016-09-28T02:26:56.918Z,0
2016-09-28T02:27:56.970Z,0
2016-09-28T02:28:57.015Z,0
2016-09-28T02:29:57.065Z,0
2016-09-28T02:30:57.137Z,0
2016-09-28T02:31:57.201Z,0
2016-09-28T02:32:57.229Z,0
2016-09-28T02:33:57.285Z,0
2016-09-28T02:34:57.368Z,0
2016-09-28T02:35:57.398Z,0
2016-09-28T02:36:57.466Z,0
2016-09-28T02:37:57.540Z,0
2016-09-28T02:38:57.572Z,0
2016-09-28T02:39:57.637Z,0
2016-09-28T02:40:57.705Z,0
2016-09-28T02:41:57.726Z,0
2016-09-28T02:42:57.795Z,0
2016-09-28T02:43:57.842Z,0
2016-09-28T02:44:57.893Z,0
2016-09-28T02:45:57.977Z,0
2016-09-28T02:46:58.030Z,0
2016-09-28T02:47:58.072Z,0
2016-09-28T02:48:58.134Z,0
2016-09-28T02:49:58.186Z,0
2016-09-28T02:50:58.260Z,0
2016-09-28T02:51:58.279Z,0
2016-09-28T02:52:58.373Z,0
2016-09-28T02:53:58.731Z,0
2016-09-28T02:54:58.445Z,0
2016-09-28T02:55:58.507Z,0
2016-09-28T02:56:58.564Z,0
2016-09-28T02:57:58.615Z,0
2016-09-28T02:58:58.668Z,0
2016-09-28T02:59:58.749Z,0
2016-09-28T03:00:58.789Z,0
2016-09-28T03:01:58.840Z,0
2016-09-28T03:02:59.116Z,0
2016-09-28T03:03:58.958Z,0
2016-09-28T03:04:59.026Z,0
2016-09-28T03:05:59.055Z,0
2016-09-28T03:06:59.139Z,0
2016-09-28T03:07:59.185Z,0
2016-09-28T03:08:59.225Z,0
2016-09-28T03:09:59.314Z,0
2016-09-28T03:10:59.350Z,0
2016-09-28T03:11:59.395Z,0
2016-09-28T03:12:59.454Z,0
2016-09-28T03:13:59.500Z,0
2016-09-28T03:14:59.564Z,0
2016-09-28T03:15:59.630Z,0
2016-09-28T03:16:59.683Z,0
2016-09-28T03:17:59.740Z,0
2016-09-28T03:18:59.774Z,0
2016-09-28T03:19:59.850Z,0
2016-09-28T03:20:59.904Z,0
2016-09-28T03:21:59.954Z,0
2016-09-28T03:23:00.015Z,0
2016-09-28T03:24:00.066Z,0
2016-09-28T03:25:00.133Z,0
2016-09-28T03:26:00.187Z,0
2016-09-28T03:27:00.230Z,0
2016-09-28T03:28:00.594Z,0
2016-09-28T03:29:00.340Z,0
2016-09-28T03:30:00.424Z,0
2016-09-28T03:31:00.457Z,0
2016-09-28T03:32:00.508Z,0
2016-09-28T03:33:00.549Z,0
2016-09-28T03:34:00.831Z,0
2016-09-28T03:35:00.671Z,0
2016-09-28T03:36:00.942Z,0
2016-09-28T03:37:00.791Z,0
2016-09-28T03:38:00.853Z,0
2016-09-28T03:39:00.889Z,0
2016-09-28T03:40:00.963Z,0
2016-09-28T03:41:00.990Z,0
2016-09-28T03:42:01.061Z,0
2016-09-28T03:43:01.137Z,0
2016-09-28T03:44:01.179Z,0
2016-09-28T03:45:01.233Z,0
2016-09-28T03:46:01.284Z,0
2016-09-28T03:47:01.341Z,0
2016-09-28T03:48:01.389Z,0
2016-09-28T03:49:01.431Z,0
2016-09-28T03:50:01.509Z,0
2016-09-28T03:51:01.693Z,0
2016-09-28T03:52:01.603Z,0
2016-09-28T03:53:01.667Z,0
2016-09-28T03:54:01.737Z,0
2016-09-28T03:55:01.788Z,0
2016-09-28T03:56:01.840Z,0
2016-09-28T03:57:01.889Z,0
2016-09-28T03:58:01.931Z,0
2016-09-28T03:59:02.012Z,0
2016-09-28T04:00:02.046Z,0
2016-09-28T04:01:02.119Z,0
2016-09-28T04:02:02.164Z,0
2016-09-28T04:03:02.212Z,0
2016-09-28T04:04:02.488Z,0
2016-09-28T04:05:02.535Z,0
2016-09-28T04:06:02.379Z,0
2016-09-28T04:07:02.651Z,0
2016-09-28T04:08:02.490Z,0
2016-09-28T04:09:02.568Z,0
2016-09-28T04:10:02.608Z,0
2016-09-28T04:11:02.669Z,0
2016-09-28T04:12:02.728Z,0
2016-09-28T04:13:02.766Z,0
2016-09-28T04:14:02.840Z,0
2016-09-28T04:15:02.870Z,0
2016-09-28T04:16:02.947Z,0
2016-09-28T04:17:02.978Z,0
2016-09-28T04:18:03.063Z,0
2016-09-28T04:19:03.111Z,0
2016-09-28T04:20:03.167Z,0
2016-09-28T04:21:03.221Z,0
2016-09-28T04:22:03.271Z,0
2016-09-28T04:23:03.314Z,0
2016-09-28T04:24:03.403Z,0
2016-09-28T04:25:03.445Z,0
2016-09-28T04:26:03.512Z,0
2016-09-28T04:27:03.570Z,0
2016-09-28T04:28:03.606Z,0
2016-09-28T04:29:03.652Z,0
2016-09-28T04:30:03.721Z,0
2016-09-28T04:31:03.767Z,0
2016-09-28T04:32:03.827Z,0
2016-09-28T04:33:03.877Z,0
2016-09-28T04:34:03.944Z,0
2016-09-28T04:35:04.220Z,0
2016-09-28T04:36:04.249Z,0
2016-09-28T04:37:04.118Z,0
2016-09-28T04:38:04.141Z,0
2016-09-28T04:39:04.229Z,0
2016-09-28T04:40:04.262Z,0
2016-09-28T04:41:04.342Z,0
2016-09-28T04:42:04.375Z,0
2016-09-28T04:43:04.443Z,0
2016-09-28T04:44:04.497Z,0
2016-09-28T04:45:04.555Z,0
2016-09-28T04:46:04.593Z,0
2016-09-28T04:47:04.651Z,0
2016-09-28T04:48:04.719Z,0
2016-09-28T04:49:04.768Z,0
2016-09-28T04:50:04.820Z,0
2016-09-28T04:51:04.885Z,4
2016-09-28T04:52:04.946Z,4
2016-09-28T04:53:04.974Z,0
2016-09-28T04:54:05.062Z,0
2016-09-28T04:55:05.085Z,4
2016-09-28T04:56:05.152Z,4
2016-09-28T04:57:05.215Z,4
2016-09-28T04:58:05.281Z,4
2016-09-28T04:59:05.333Z,8
2016-09-28T05:00:05.375Z,4
2016-09-28T05:01:05.405Z,8
2016-09-28T05:02:05.467Z,12
2016-09-28T05:03:05.547Z,12
2016-09-28T05:04:05.585Z,12
2016-09-28T05:05:05.654Z,12
2016-09-28T05:06:05.894Z,12
2016-09-28T05:07:05.953Z,20
2016-09-28T05:08:05.830Z,20
2016-09-28T05:09:05.863Z,20
2016-09-28T05:10:05.919Z,24
2016-09-28T05:11:05.966Z,28
2016-09-28T05:12:06.029Z,32
2016-09-28T05:13:06.106Z,36
2016-09-28T05:14:06.153Z,36
2016-09-28T05:15:06.204Z,44
2016-09-28T05:16:06.241Z,48
2016-09-28T05:17:06.294Z,52
2016-09-28T05:18:06.367Z,60
2016-09-28T05:19:06.429Z,64
2016-09-28T05:20:06.488Z,68
2016-09-28T05:21:06.541Z,76
2016-09-28T05:22:06.575Z,76
2016-09-28T05:23:06.634Z,84
2016-09-28T05:24:06.692Z,88
2016-09-28T05:25:06.745Z,96
2016-09-28T05:26:06.808Z,100
2016-09-28T05:27:06.845Z,108
2016-09-28T05:28:06.932Z,112
2016-09-28T05:29:06.953Z,124
2016-09-28T05:30:07.029Z,128
2016-09-28T05:31:07.086Z,136
2016-09-28T05:32:07.147Z,144
2016-09-28T05:33:07.178Z,144
2016-09-28T05:34:07.242Z,156
2016-09-28T05:35:07.298Z,164
2016-09-28T05:36:07.344Z,172
2016-09-28T05:37:07.602Z,172
2016-09-28T05:38:07.661Z,172
2016-09-28T05:39:07.736Z,176
2016-09-28T05:40:07.599Z,180
2016-09-28T05:41:07.632Z,188
2016-09-28T05:42:07.687Z,192
2016-09-28T05:43:07.758Z,200
2016-09-28T05:44:07.798Z,208
2016-09-28T05:45:07.853Z,220
2016-09-28T05:46:07.926Z,236
2016-09-28T05:47:07.957Z,252
2016-09-28T05:48:08.041Z,272
2016-09-28T05:49:08.081Z,284
2016-09-28T05:50:08.115Z,292
2016-09-28T05:51:08.199Z,292
2016-09-28T05:52:08.237Z,288
2016-09-28T05:53:08.297Z,280
2016-09-28T05:54:08.363Z,272
2016-09-28T05:55:08.406Z,272
2016-09-28T05:56:08.483Z,272
2016-09-28T05:57:08.508Z,264
2016-09-28T05:58:08.562Z,260
2016-09-28T05:59:08.643Z,268
2016-09-28T06:00:08.705Z,276
2016-09-28T06:01:09.379Z,288
2016-09-28T06:02:08.795Z,296
2016-09-28T06:03:08.862Z,308
2016-09-28T06:04:08.896Z,316
2016-09-28T06:05:08.952Z,324
2016-09-28T06:06:09.037Z,332
2016-09-28T06:07:09.069Z,332
2016-09-28T06:08:09.139Z,348
2016-09-28T06:09:09.186Z,380
2016-09-28T06:10:09.245Z,388
2016-09-28T06:11:09.291Z,356
2016-09-28T06:12:09.357Z,332
2016-09-28T06:13:09.388Z,272
2016-09-28T06:14:09.455Z,256
2016-09-28T06:15:09.517Z,256
2016-09-28T06:16:09.569Z,260
2016-09-28T06:17:09.623Z,284
2016-09-28T06:18:09.681Z,312
2016-09-28T06:19:09.755Z,332
2016-09-28T06:20:09.774Z,340
2016-09-28T06:21:09.827Z,352
2016-09-28T06:22:09.924Z,360
2016-09-28T06:23:09.954Z,388
2016-09-28T06:24:10.018Z,400
2016-09-28T06:25:10.074Z,416
2016-09-28T06:26:10.135Z,424
2016-09-28T06:27:10.183Z,420
2016-09-28T06:28:10.241Z,420
2016-09-28T06:29:10.272Z,428
2016-09-28T06:30:10.328Z,436
2016-09-28T06:31:10.423Z,448
2016-09-28T06:32:10.466Z,448
2016-09-28T06:33:10.496Z,444
2016-09-28T06:34:10.590Z,468
2016-09-28T06:35:10.645Z,480
2016-09-28T06:36:10.987Z,508
2016-09-28T06:37:10.728Z,516
2016-09-28T06:38:10.802Z,552
2016-09-28T06:39:10.852Z,580
2016-09-28T06:40:10.900Z,608
2016-09-28T06:41:10.966Z,616
2016-09-28T06:42:11.013Z,608
2016-09-28T06:43:11.072Z,588
2016-09-28T06:44:11.108Z,568
2016-09-28T06:45:11.177Z,568
2016-09-28T06:46:11.241Z,580
2016-09-28T06:47:11.288Z,588
2016-09-28T06:48:11.365Z,600
2016-09-28T06:49:11.400Z,616
2016-09-28T06:50:11.452Z,644
2016-09-28T06:51:11.497Z,656
2016-09-28T06:52:11.583Z,636
2016-09-28T06:53:11.637Z,636
2016-09-28T06:54:12.005Z,656
2016-09-28T06:55:11.732Z,672
2016-09-28T06:56:11.787Z,692
2016-09-28T06:57:11.842Z,700
2016-09-28T06:58:11.897Z,716
2016-09-28T06:59:11.949Z,716
2016-09-28T07:00:11.998Z,724
2016-09-28T07:01:12.067Z,772
2016-09-28T07:02:12.124Z,836
2016-09-28T07:03:12.171Z,856
2016-09-28T07:04:12.242Z,832
2016-09-28T07:05:12.532Z,800
2016-09-28T07:06:12.343Z,848
2016-09-28T07:07:12.397Z,888
2016-09-28T07:08:12.477Z,884
2016-09-28T07:09:12.517Z,872
2016-09-28T07:10:12.586Z,916
2016-09-28T07:11:12.645Z,980
2016-09-28T07:12:12.694Z,1036
2016-09-28T07:13:12.739Z,1064
2016-09-28T07:14:12.795Z,1004
2016-09-28T07:15:12.869Z,1136
2016-09-28T07:16:12.915Z,1392
2016-09-28T07:17:12.958Z,1532
2016-09-28T07:18:13.001Z,1632
2016-09-28T07:19:13.076Z,1988
2016-09-28T07:20:13.176Z,2384
2016-09-28T07:21:13.176Z,2752
2016-09-28T07:22:13.250Z,3224
2016-09-28T07:23:13.276Z,4040
2016-09-28T07:24:13.337Z,7976
2016-09-28T07:25:13.391Z,22048
2016-09-28T07:26:13.465Z,34688
2016-09-28T07:27:13.504Z,38464
2016-09-28T07:28:13.590Z,38592
2016-09-28T07:29:13.618Z,40928
2016-09-28T07:30:13.686Z,41952
2016-09-28T07:31:13.737Z,42144
2016-09-28T07:32:13.790Z,43392
2016-09-28T07:33:13.876Z,44928
2016-09-28T07:34:13.904Z,46016
2016-09-28T07:35:13.956Z,42112
2016-09-28T07:36:14.021Z,43552
2016-09-28T07:37:14.078Z,44096
2016-09-28T07:38:14.112Z,46016
2016-09-28T07:39:14.190Z,46240
2016-09-28T07:40:14.238Z,44800
2016-09-28T07:41:14.280Z,43104
2016-09-28T07:42:14.371Z,47232
2016-09-28T07:43:14.396Z,47808
2016-09-28T07:44:14.477Z,44704
2016-09-28T07:45:14.517Z,47072
2016-09-28T07:46:14.565Z,46560
2016-09-28T07:47:14.638Z,44864
2016-09-28T07:48:14.686Z,46304
2016-09-28T07:49:14.747Z,47744
2016-09-28T07:50:14.811Z,47648
2016-09-28T07:51:14.871Z,43488
2016-09-28T07:52:14.897Z,46432
2016-09-28T07:53:14.982Z,49728
2016-09-28T07:54:15.040Z,47328
2016-09-28T07:55:15.098Z,43584
2016-09-28T07:56:15.337Z,42528
2016-09-28T07:57:15.188Z,41888
2016-09-28T07:58:15.244Z,34592
2016-09-28T07:59:15.307Z,42592
2016-09-28T08:00:15.364Z,44192
2016-09-28T08:01:15.436Z,42304
2016-09-28T08:02:15.472Z,45216
2016-09-28T08:03:15.513Z,46912
2016-09-28T08:04:15.595Z,48192
2016-09-28T08:05:15.651Z,48064
2016-09-28T08:06:15.709Z,42880
2016-09-28T08:07:15.744Z,37472
2016-09-28T08:08:15.799Z,31584
2016-09-28T08:09:15.872Z,44608
2016-09-28T08:10:15.906Z,44896
2016-09-28T08:11:15.995Z,37440
2016-09-28T08:12:16.033Z,40992
2016-09-28T08:13:16.080Z,31168
2016-09-28T08:14:16.139Z,21152
2016-09-28T08:15:16.214Z,32320
2016-09-28T08:16:16.264Z,34176
2016-09-28T08:17:16.335Z,36128
2016-09-28T08:18:16.379Z,42880
2016-09-28T08:19:16.428Z,33664
2016-09-28T08:20:16.490Z,18816
2016-09-28T08:21:16.532Z,6920
2016-09-28T08:22:16.594Z,5192
2016-09-28T08:23:16.650Z,4240
2016-09-28T08:24:16.722Z,3520
2016-09-28T08:25:16.785Z,3556
2016-09-28T08:26:16.812Z,3192
2016-09-28T08:27:16.862Z,2896
2016-09-28T08:28:16.948Z,3124
2016-09-28T08:29:16.982Z,2908
2016-09-28T08:30:17.046Z,2836
2016-09-28T08:31:17.091Z,2824
2016-09-28T08:32:17.162Z,2776
2016-09-28T08:33:17.219Z,2724
2016-09-28T08:34:17.272Z,2668
2016-09-28T08:35:17.310Z,2608
2016-09-28T08:36:17.389Z,2484
2016-09-28T08:37:17.459Z,2264
2016-09-28T08:38:17.513Z,2152
2016-09-28T08:39:17.571Z,2336
2016-09-28T08:40:17.614Z,2532
2016-09-28T08:41:17.668Z,2488
2016-09-28T08:42:17.742Z,2484
2016-09-28T08:43:17.766Z,2448
2016-09-28T08:44:17.840Z,2464
2016-09-28T08:45:17.888Z,2120
2016-09-28T08:46:17.947Z,2132
2016-09-28T08:47:17.985Z,2048
2016-09-28T08:48:18.045Z,2088
2016-09-28T08:49:18.100Z,2064
2016-09-28T08:50:18.154Z,2036
2016-09-28T08:51:18.233Z,1996
2016-09-28T08:52:18.301Z,1980
2016-09-28T08:53:18.342Z,1940
2016-09-28T08:54:18.425Z,1932
2016-09-28T08:55:18.460Z,1888
2016-09-28T08:56:18.505Z,2072
2016-09-28T08:57:18.576Z,1944
2016-09-28T08:58:18.625Z,1932
2016-09-28T08:59:19.028Z,1840
2016-09-28T09:00:19.385Z,1920
2016-09-28T09:01:19.680Z,1992
2016-09-28T09:02:18.909Z,1968
2016-09-28T09:03:18.948Z,1988
2016-09-28T09:04:19.296Z,1984
2016-09-28T09:05:19.674Z,1916
2016-09-28T09:06:19.718Z,1888
2016-09-28T09:07:19.140Z,1980
2016-09-28T09:08:19.550Z,1944
2016-09-28T09:09:19.572Z,1860
2016-09-28T09:10:19.629Z,1796
2016-09-28T09:11:19.389Z,1760
2016-09-28T09:12:19.750Z,1660
2016-09-28T09:13:19.981Z,1604
2016-09-28T09:14:20.179Z,1616
2016-09-28T09:15:19.585Z,1664
2016-09-28T09:16:19.964Z,1560
2016-09-28T09:17:20.005Z,1520
2016-09-28T09:18:19.764Z,1548
2016-09-28T09:19:20.107Z,1620
2016-09-28T09:20:20.517Z,1620
2016-09-28T09:21:19.915Z,1616
2016-09-28T09:22:20.532Z,1540
2016-09-28T09:23:20.274Z,1656
2016-09-28T09:24:20.713Z,1724
2016-09-28T09:25:20.433Z,1644
2016-09-28T09:26:20.193Z,1500
2016-09-28T09:27:20.597Z,1532
2016-09-28T09:28:20.984Z,1568
2016-09-28T09:29:20.687Z,1524
2016-09-28T09:30:20.416Z,1688
2016-09-28T09:31:20.812Z,1720
2016-09-28T09:32:21.190Z,1700
2016-09-28T09:33:20.604Z,1556
2016-09-28T09:34:20.982Z,1544
2016-09-28T09:35:21.341Z,1612
2016-09-28T09:36:20.746Z,1536
2016-09-28T09:37:21.429Z,1492
2016-09-28T09:38:21.492Z,1528
2016-09-28T09:39:21.559Z,1520
2016-09-28T09:40:21.310Z,1516
2016-09-28T09:41:21.354Z,1480
2016-09-28T09:42:21.734Z,1468
2016-09-28T09:43:21.495Z,1500
2016-09-28T09:44:21.517Z,1508
2016-09-28T09:45:21.273Z,1496
2016-09-28T09:46:21.629Z,1496
2016-09-28T09:47:21.737Z,1512
2016-09-28T09:48:21.477Z,1512
2016-09-28T09:49:21.501Z,1512
2016-09-28T09:50:21.858Z,1508
2016-09-28T09:51:21.586Z,1508
2016-09-28T09:52:22.225Z,1532
2016-09-28T09:53:21.788Z,1532
2016-09-28T09:54:22.057Z,1536
2016-09-28T09:55:22.193Z,1540
2016-09-28T09:56:22.417Z,1564
2016-09-28T09:57:21.955Z,1540
2016-09-28T09:58:22.622Z,1564
2016-09-28T09:59:22.036Z,1192
2016-09-28T10:00:22.730Z,1572
2016-09-28T10:01:22.167Z,1588
2016-09-28T10:02:22.826Z,1548
2016-09-28T10:03:22.322Z,936
2016-09-28T10:04:22.322Z,944
2016-09-28T10:05:22.726Z,1480
2016-09-28T10:06:22.470Z,1632
2016-09-28T10:07:22.485Z,1584
2016-09-28T10:08:23.153Z,1540
2016-09-28T10:09:22.592Z,1516
2016-09-28T10:10:22.664Z,1540
2016-09-28T10:11:22.726Z,1536
2016-09-28T10:12:23.122Z,1520
2016-09-28T10:13:22.844Z,1500
2016-09-28T10:14:23.211Z,1504
2016-09-28T10:15:23.570Z,1496
2016-09-28T10:16:23.320Z,1504
2016-09-28T10:17:23.067Z,1500
2016-09-28T10:18:23.435Z,1508
2016-09-28T10:19:23.838Z,1508
2016-09-28T10:20:23.557Z,1516
2016-09-28T10:21:23.287Z,1520
2016-09-28T10:22:23.640Z,1536
2016-09-28T10:23:23.396Z,1508
2016-09-28T10:24:23.445Z,1508
2016-09-28T10:25:23.838Z,1520
2016-09-28T10:26:24.182Z,1532
2016-09-28T10:27:23.615Z,1540
2016-09-28T10:28:24.023Z,1584
2016-09-28T10:29:24.062Z,1604
2016-09-28T10:30:24.435Z,1620
2016-09-28T10:31:23.850Z,1620
2016-09-28T10:32:23.916Z,1588
2016-09-28T10:33:24.299Z,1532
2016-09-28T10:34:24.555Z,1468
2016-09-28T10:35:24.672Z,1496
2016-09-28T10:36:24.762Z,1488
2016-09-28T10:37:24.523Z,1564
2016-09-28T10:38:24.582Z,1580
2016-09-28T10:39:24.946Z,1544
2016-09-28T10:40:24.368Z,1552
2016-09-28T10:41:24.744Z,1544
2016-09-28T10:42:24.791Z,1628
2016-09-28T10:43:24.865Z,1632
2016-09-28T10:44:24.584Z,1668
2016-09-28T10:45:25.285Z,1624
2016-09-28T10:46:25.381Z,1556
2016-09-28T10:47:24.767Z,1472
2016-09-28T10:48:24.822Z,1528
2016-09-28T10:49:25.609Z,1564
2016-09-28T10:50:25.556Z,1548
2016-09-28T10:51:24.974Z,1532
2016-09-28T10:52:25.358Z,1516
2016-09-28T10:53:25.088Z,1500
2016-09-28T10:54:25.793Z,1496
2016-09-28T10:55:25.204Z,1488
2016-09-28T10:56:25.296Z,1488
2016-09-28T10:57:25.319Z,1488
2016-09-28T10:58:25.389Z,1488
2016-09-28T10:59:26.057Z,1488
2016-09-28T11:00:25.491Z,1488
2016-09-28T11:01:25.834Z,1488
2016-09-28T11:02:25.591Z,1488
2016-09-28T11:03:26.252Z,1488
2016-09-28T11:04:26.015Z,1488
2016-09-28T11:05:25.746Z,1492
2016-09-28T11:06:25.831Z,1492
2016-09-28T11:07:26.175Z,1492
2016-09-28T11:08:26.237Z,1500
2016-09-28T11:09:25.955Z,1500
2016-09-28T11:10:26.043Z,1504
2016-09-28T11:11:26.393Z,1508
2016-09-28T11:12:26.150Z,1516
2016-09-28T11:13:26.557Z,1516
2016-09-28T11:14:26.572Z,1524
2016-09-28T11:15:26.631Z,1528
2016-09-28T11:16:26.377Z,1532
2016-09-28T11:17:26.433Z,1544
2016-09-28T11:18:27.132Z,1544
2016-09-28T11:19:26.546Z,1544
2016-09-28T11:20:26.944Z,1544
2016-09-28T11:21:26.953Z,1548
2016-09-28T11:22:26.714Z,1556
2016-09-28T11:23:26.760Z,1564
2016-09-28T11:24:27.122Z,1568
2016-09-28T11:25:26.872Z,1572
2016-09-28T11:26:26.958Z,1576
2016-09-28T11:27:27.297Z,1584
2016-09-28T11:28:27.034Z,1584
2016-09-28T11:29:27.118Z,1592
2016-09-28T11:30:27.154Z,1600
2016-09-28T11:31:27.188Z,1604
2016-09-28T11:32:27.269Z,1604
2016-09-28T11:33:27.302Z,1612
2016-09-28T11:34:27.394Z,1616
2016-09-28T11:35:27.437Z,1624
2016-09-28T11:36:27.478Z,1632
2016-09-28T11:37:27.563Z,1640
2016-09-28T11:38:27.613Z,1644
2016-09-28T11:39:27.663Z,1652
2016-09-28T11:40:27.726Z,1668
2016-09-28T11:41:27.783Z,1684
2016-09-28T11:42:27.812Z,1696
2016-09-28T11:43:28.518Z,1696
2016-09-28T11:44:28.239Z,1704
2016-09-28T11:45:28.329Z,1720
2016-09-28T11:46:28.390Z,1740
2016-09-28T11:47:28.136Z,2472
2016-09-28T11:48:28.484Z,1800
2016-09-28T11:49:28.550Z,1780
2016-09-28T11:50:28.916Z,1796
2016-09-28T11:51:28.676Z,1812
2016-09-28T11:52:28.428Z,1832
2016-09-28T11:53:29.108Z,1848
2016-09-28T11:54:28.864Z,1868
2016-09-28T11:55:28.577Z,1880
2016-09-28T11:56:28.627Z,1924
2016-09-28T11:57:29.023Z,1956
2016-09-28T11:58:28.766Z,2000
2016-09-28T11:59:29.130Z,2040
2016-09-28T12:00:29.181Z,2092
2016-09-28T12:01:28.940Z,2152
2016-09-28T12:02:29.590Z,2332
2016-09-28T12:03:29.036Z,2348
2016-09-28T12:04:29.089Z,2472
2016-09-28T12:05:29.174Z,2976
2016-09-28T12:06:29.552Z,2644
2016-09-28T12:07:29.637Z,2660
2016-09-28T12:08:29.631Z,4416
2016-09-28T12:09:29.409Z,6924
2016-09-28T12:10:29.446Z,12624
2016-09-28T12:11:29.515Z,9232
2016-09-28T12:12:29.893Z,15648
2016-09-28T12:13:29.963Z,15244
2016-09-28T12:14:30.007Z,16076
2016-09-28T12:15:29.746Z,16948
2016-09-28T12:16:30.130Z,17864
2016-09-28T12:17:29.862Z,18592
2016-09-28T12:18:30.537Z,20736
2016-09-28T12:19:29.992Z,21920
2016-09-28T12:20:30.041Z,23200
2016-09-28T12:21:30.088Z,24096
2016-09-28T12:22:30.124Z,27328
2016-09-28T12:23:30.854Z,28480
2016-09-28T12:24:30.598Z,29024
2016-09-28T12:25:30.666Z,28640
2016-09-28T12:26:30.687Z,27840
2016-09-28T12:27:30.439Z,26016
2016-09-28T12:28:30.810Z,29568
2016-09-28T12:29:30.542Z,29472
2016-09-28T12:30:30.923Z,23648
2016-09-28T12:31:30.884Z,29632
2016-09-28T12:32:30.728Z,27200
2016-09-28T12:33:31.109Z,29728
2016-09-28T12:34:30.839Z,28864
2016-09-28T12:35:31.217Z,28832
2016-09-28T12:36:31.299Z,29888
2016-09-28T12:37:31.048Z,22400
2016-09-28T12:38:31.732Z,28416
2016-09-28T12:39:31.492Z,28128
2016-09-28T12:40:31.822Z,24832
2016-09-28T12:41:31.447Z,26048
2016-09-28T12:42:31.640Z,27456
2016-09-28T12:43:31.371Z,28352
2016-09-28T12:44:31.987Z,30528
2016-09-28T12:45:31.830Z,31872
2016-09-28T12:46:32.162Z,29792
2016-09-28T12:47:31.600Z,29024
2016-09-28T12:48:32.288Z,30912
2016-09-28T12:49:32.064Z,32256
2016-09-28T12:50:32.110Z,34624
2016-09-28T12:51:31.867Z,34560
2016-09-28T12:52:32.216Z,35104
2016-09-28T12:53:31.997Z,32288
2016-09-28T12:54:32.036Z,28000
2016-09-28T12:55:32.389Z,29184
2016-09-28T12:56:32.148Z,28192
2016-09-28T12:57:32.809Z,28096
2016-09-28T12:58:32.281Z,26560
2016-09-28T12:59:32.635Z,27360
2016-09-28T13:00:32.726Z,27680
2016-09-28T13:01:32.793Z,29152
2016-09-28T13:02:32.805Z,29024
2016-09-28T13:03:32.851Z,28320
2016-09-28T13:04:32.626Z,29888
2016-09-28T13:05:32.706Z,30464
2016-09-28T13:06:33.391Z,31072
2016-09-28T13:07:33.086Z,30624
2016-09-28T13:08:32.846Z,29760
2016-09-28T13:09:32.906Z,28992
2016-09-28T13:10:32.970Z,29280
2016-09-28T13:11:33.009Z,23424
2016-09-28T13:12:33.079Z,27904
2016-09-28T13:13:33.128Z,25536
2016-09-28T13:14:33.204Z,23360
2016-09-28T13:15:33.261Z,21024
2016-09-28T13:16:33.329Z,22368
2016-09-28T13:17:33.409Z,21184
2016-09-28T13:18:33.631Z,21696
2016-09-28T13:19:33.515Z,20480
2016-09-28T13:20:33.577Z,19840
2016-09-28T13:21:33.611Z,20224
2016-09-28T13:22:33.837Z,18944
2016-09-28T13:23:34.383Z,17760
2016-09-28T13:24:34.483Z,17812
2016-09-28T13:25:33.868Z,16412
2016-09-28T13:26:34.246Z,17368
2016-09-28T13:27:34.231Z,16824
2016-09-28T13:28:34.344Z,17252
2016-09-28T13:29:34.110Z,17684
2016-09-28T13:30:34.189Z,18748
2016-09-28T13:31:34.883Z,16144
2016-09-28T13:32:34.893Z,16992
2016-09-28T13:33:34.960Z,16952
2016-09-28T13:34:34.720Z,16464
2016-09-28T13:35:34.479Z,2508
2016-09-28T13:36:34.520Z,13988
2016-09-28T13:37:34.576Z,11328
2016-09-28T13:38:34.923Z,12024
2016-09-28T13:39:34.993Z,8896
2016-09-28T13:40:34.752Z,7192
2016-09-28T13:41:34.838Z,5288
2016-09-28T13:42:35.184Z,3828
2016-09-28T13:43:35.208Z,8564
2016-09-28T13:44:35.306Z,10048
2016-09-28T13:45:35.384Z,9912
2016-09-28T13:46:35.344Z,10700
2016-09-28T13:47:35.484Z,7988
2016-09-28T13:48:35.222Z,6928
2016-09-28T13:49:35.574Z,6168